createdAt,value
2019-03-01T00:00:10.431Z,17.60
2019-03-01T00:02:40.911Z,17.67
2019-03-01T00:05:17.248Z,16.87
2019-03-01T00:08:04.100Z,16.65
2019-03-01T00:10:40.479Z,16.82
2019-03-01T00:13:29.156Z,17.57
2019-03-01T00:16:08.486Z,17.65
2019-03-01T00:18:45.123Z,16.75
2019-03-01T00:21:15.517Z,16.55
2019-03-01T00:23:45.919Z,16.05
2019-03-01T00:26:28.555Z,16.02
2019-03-01T00:29:07.907Z,16.70
2019-03-01T00:31:38.307Z,17.00
2019-03-01T00:34:11.627Z,16.62
2019-03-01T00:36:42.021Z,17.73
2019-03-01T00:39:18.379Z,18.05
2019-03-01T00:41:51.467Z,17.70
2019-03-01T00:44:33.915Z,17.77
2019-03-01T00:47:02.771Z,18.70
2019-03-01T00:49:32.109Z,18.05
2019-03-01T00:52:01.027Z,18.02
2019-03-01T00:54:29.912Z,17.98
2019-03-01T00:56:58.763Z,15.98
2019-03-01T00:59:27.619Z,17.23
2019-03-01T01:01:56.724Z,17.82
2019-03-01T01:04:25.809Z,16.40
2019-03-01T01:06:54.840Z,17.12
2019-03-01T01:09:23.698Z,16.80
2019-03-01T01:11:52.559Z,16.05
2019-03-01T01:14:21.424Z,17.32
2019-03-01T01:16:50.384Z,16.15
2019-03-01T01:19:19.270Z,16.40
2019-03-01T01:21:48.135Z,16.40
2019-03-01T01:24:17.000Z,17.73
2019-03-01T01:26:45.863Z,17.50
2019-03-01T01:29:15.805Z,16.85
2019-03-01T01:31:44.665Z,16.73
2019-03-01T01:34:13.525Z,16.95
2019-03-01T01:36:42.624Z,15.05
2019-03-01T01:39:11.859Z,15.05
2019-03-01T01:41:40.729Z,14.60
2019-03-01T01:44:09.817Z,13.78
2019-03-01T01:46:38.671Z,14.55
2019-03-01T01:49:07.536Z,12.53
2019-03-01T01:51:36.393Z,11.60
2019-03-01T01:54:05.267Z,10.65
2019-03-01T01:56:34.351Z,11.57
2019-03-01T01:59:03.216Z,10.85
2019-03-01T02:01:32.083Z,11.12
2019-03-01T02:04:00.938Z,10.60
2019-03-01T02:06:29.815Z,10.40
2019-03-01T02:08:58.667Z,9.98
2019-03-01T02:11:27.525Z,10.70
2019-03-01T02:13:56.387Z,10.10
2019-03-01T02:16:25.256Z,11.48
2019-03-01T02:18:57.758Z,10.95
2019-03-01T02:21:25.972Z,11.57
2019-03-01T02:23:54.827Z,10.70
2019-03-01T02:26:24.668Z,9.63
2019-03-01T02:28:53.525Z,9.60
2019-03-01T02:31:22.393Z,10.08
2019-03-01T02:33:51.260Z,9.18
2019-03-01T02:36:20.115Z,9.60
2019-03-01T02:38:48.971Z,9.43
2019-03-01T02:41:18.052Z,8.40
2019-03-01T02:43:46.917Z,8.10
2019-03-01T02:46:15.773Z,7.92
2019-03-01T02:48:44.649Z,7.70
2019-03-01T02:51:13.507Z,7.40
2019-03-01T02:53:42.355Z,7.47
2019-03-01T02:56:11.466Z,8.60
2019-03-01T02:58:40.315Z,8.25
2019-03-01T03:01:09.189Z,7.62
2019-03-01T03:03:38.043Z,8.08
2019-03-01T03:06:14.237Z,7.45
2019-03-01T03:08:43.167Z,8.15
2019-03-01T03:11:12.023Z,8.15
2019-03-01T03:13:40.871Z,8.45
2019-03-01T03:16:09.797Z,8.33
2019-03-01T03:18:38.662Z,7.40
2019-03-01T03:21:07.513Z,7.70
2019-03-01T03:23:36.373Z,7.35
2019-03-01T03:26:05.471Z,7.42
2019-03-01T03:28:34.553Z,7.20
2019-03-01T03:31:03.405Z,8.60
2019-03-01T03:33:32.261Z,7.90
2019-03-01T03:36:01.341Z,7.50
2019-03-01T03:38:30.200Z,8.45
2019-03-01T03:40:59.108Z,7.47
2019-03-01T03:43:27.992Z,8.05
2019-03-01T03:45:56.855Z,8.08
2019-03-01T03:48:25.954Z,8.35
2019-03-01T03:50:54.806Z,8.25
2019-03-01T03:53:23.678Z,8.03
2019-03-01T03:55:52.527Z,8.33
2019-03-01T03:58:21.561Z,8.55
2019-03-01T04:00:50.436Z,8.48
2019-03-01T04:03:19.281Z,8.23
2019-03-01T04:05:48.438Z,8.60
2019-03-01T04:08:17.289Z,8.78
2019-03-01T04:10:46.163Z,9.00
2019-03-01T04:13:16.733Z,8.70
2019-03-01T04:15:45.576Z,7.67
2019-03-01T04:18:14.435Z,8.30
2019-03-01T04:20:43.353Z,8.15
2019-03-01T04:23:12.227Z,9.25
2019-03-01T04:25:41.083Z,8.33
2019-03-01T04:28:09.939Z,8.88
2019-03-01T04:30:39.022Z,8.73
2019-03-01T04:33:07.883Z,9.73
2019-03-01T04:35:36.735Z,10.40
2019-03-01T04:38:05.612Z,10.43
2019-03-01T04:40:34.518Z,10.85
2019-03-01T04:43:03.379Z,10.28
2019-03-01T04:45:32.243Z,10.70
2019-03-01T04:48:01.121Z,11.90
2019-03-01T04:50:29.982Z,12.28
2019-03-01T04:52:58.827Z,11.43
2019-03-01T04:55:27.692Z,11.30
2019-03-01T04:57:56.555Z,11.60
2019-03-01T05:00:25.488Z,11.53
2019-03-01T05:02:54.348Z,12.70
2019-03-01T05:05:23.299Z,12.30
2019-03-01T05:07:52.156Z,14.00
2019-03-01T05:10:21.088Z,14.15
2019-03-01T05:12:50.566Z,14.95
2019-03-01T05:15:20.600Z,14.23
2019-03-01T05:17:49.698Z,13.03
2019-03-01T05:20:18.559Z,14.30
2019-03-01T05:22:47.419Z,14.50
2019-03-01T05:25:16.287Z,15.45
2019-03-01T05:27:46.145Z,15.25
2019-03-01T05:30:16.100Z,15.48
2019-03-01T05:32:44.959Z,15.65
2019-03-01T05:35:13.891Z,16.52
2019-03-01T05:37:42.759Z,14.68
2019-03-01T05:40:13.155Z,14.78
2019-03-01T05:42:42.087Z,15.03
2019-03-01T05:45:12.496Z,13.50
2019-03-01T05:47:41.347Z,14.63
2019-03-01T05:50:11.379Z,14.18
2019-03-01T05:52:40.245Z,13.85
2019-03-01T05:55:09.986Z,12.47
2019-03-01T05:57:40.375Z,12.43
2019-03-01T06:00:10.040Z,13.28
2019-03-01T06:02:43.103Z,12.00
2019-03-01T06:05:12.840Z,11.83
2019-03-01T06:07:58.583Z,13.43
2019-03-01T06:10:31.639Z,13.30
2019-03-01T06:13:20.546Z,13.80
2019-03-01T06:15:50.947Z,13.38
2019-03-01T06:18:36.636Z,12.73
2019-03-01T06:21:07.281Z,13.53
2019-03-01T06:23:43.609Z,14.53
2019-03-01T06:26:23.175Z,14.38
2019-03-01T06:28:56.593Z,13.65
2019-03-01T06:31:29.759Z,14.10
2019-03-01T06:34:06.145Z,13.85
2019-03-01T06:36:51.725Z,15.40
2019-03-01T06:39:35.587Z,14.23
2019-03-01T06:42:07.632Z,14.68
2019-03-01T06:44:54.479Z,14.30
2019-03-01T06:47:25.244Z,13.28
2019-03-01T06:49:58.756Z,13.50
2019-03-01T06:52:27.632Z,12.28
2019-03-01T06:54:56.492Z,13.10
2019-03-01T06:57:25.363Z,12.88
2019-03-01T06:59:54.231Z,12.73
2019-03-01T07:02:27.403Z,11.95
2019-03-01T07:04:56.272Z,12.70
2019-03-01T07:07:25.131Z,13.70
2019-03-01T07:09:53.999Z,13.58
2019-03-01T07:12:23.124Z,13.20
2019-03-01T07:14:51.986Z,13.98
2019-03-01T07:17:20.843Z,14.30
2019-03-01T07:19:49.712Z,13.48
2019-03-01T07:22:18.573Z,13.80
2019-03-01T07:24:47.441Z,13.55
2019-03-01T07:27:16.303Z,14.30
2019-03-01T07:29:45.160Z,14.33
2019-03-01T07:32:15.000Z,13.40
2019-03-01T07:34:43.865Z,13.98
2019-03-01T07:37:12.723Z,12.60
2019-03-01T07:39:41.593Z,12.75
2019-03-01T07:42:10.460Z,12.73
2019-03-01T07:44:39.552Z,13.60
2019-03-01T07:47:08.659Z,13.58
2019-03-01T07:49:37.536Z,11.57
2019-03-01T07:52:06.392Z,12.25
2019-03-01T07:54:35.263Z,12.73
2019-03-01T07:57:04.139Z,14.30
2019-03-01T07:59:37.913Z,13.30
2019-03-01T08:02:04.821Z,12.65
2019-03-01T08:04:34.176Z,12.78
2019-03-01T08:07:03.047Z,13.00
2019-03-01T08:09:32.148Z,11.63
2019-03-01T08:12:03.598Z,11.93
2019-03-01T08:14:32.876Z,11.95
2019-03-01T08:17:01.964Z,11.80
2019-03-01T08:19:30.842Z,12.60
2019-03-01T08:21:59.948Z,12.07
2019-03-01T08:24:29.046Z,12.20
2019-03-01T08:26:58.137Z,10.50
2019-03-01T08:29:27.003Z,7.92
2019-03-01T08:31:56.731Z,6.92
2019-03-01T08:34:25.707Z,6.95
2019-03-01T08:36:55.519Z,7.80
2019-03-01T08:39:24.395Z,7.00
2019-03-01T08:41:53.487Z,7.20
2019-03-01T08:44:23.097Z,8.30
2019-03-01T08:46:53.100Z,7.62
2019-03-01T08:49:21.958Z,6.92
2019-03-01T08:51:51.063Z,7.33
2019-03-01T08:54:22.901Z,7.28
2019-03-01T08:56:51.383Z,4.75
2019-03-01T08:59:20.384Z,4.03
2019-03-01T09:01:49.473Z,3.83
2019-03-01T09:04:21.383Z,3.10
2019-03-01T09:06:48.979Z,2.92
2019-03-01T09:09:21.028Z,3.27
2019-03-01T09:11:49.227Z,3.27
2019-03-01T09:14:18.085Z,2.92
2019-03-01T09:16:46.950Z,2.90
2019-03-01T09:19:15.784Z,2.45
2019-03-01T09:21:49.955Z,2.50
2019-03-01T09:24:15.436Z,2.52
2019-03-01T09:26:44.291Z,2.52
2019-03-01T09:29:18.276Z,2.50
2019-03-01T09:31:43.716Z,2.50
2019-03-01T09:34:12.589Z,2.83
2019-03-01T09:36:43.069Z,3.05
2019-03-01T09:39:14.529Z,3.22
2019-03-01T09:41:42.479Z,3.17
2019-03-01T09:44:11.339Z,4.15
2019-03-01T09:46:40.228Z,3.70
2019-03-01T09:49:09.087Z,3.80
2019-03-01T09:51:37.957Z,3.70
2019-03-01T09:54:09.378Z,4.20
2019-03-01T09:56:37.376Z,4.20
2019-03-01T09:59:06.534Z,3.85
2019-03-01T10:01:35.387Z,3.70
2019-03-01T10:04:04.312Z,3.92
2019-03-01T10:06:38.182Z,3.75
2019-03-01T10:09:05.495Z,4.05
2019-03-01T10:11:35.824Z,3.70
2019-03-01T10:14:04.908Z,4.05
2019-03-01T10:16:33.772Z,3.80
2019-03-01T10:19:02.624Z,3.77
2019-03-01T10:21:31.479Z,3.98
2019-03-01T10:24:00.334Z,4.20
2019-03-01T10:26:29.188Z,3.83
2019-03-01T10:28:58.284Z,4.05
2019-03-01T10:31:27.137Z,4.50
2019-03-01T10:33:56.280Z,4.40
2019-03-01T10:36:25.132Z,4.53
2019-03-01T10:38:53.988Z,5.50
2019-03-01T10:41:23.076Z,5.30
2019-03-01T10:43:51.949Z,5.00
2019-03-01T10:46:20.801Z,5.40
2019-03-01T10:48:49.655Z,6.05
2019-03-01T10:51:18.751Z,7.25
2019-03-01T10:53:47.969Z,6.85
2019-03-01T10:56:17.168Z,6.35
2019-03-01T10:58:46.032Z,7.53
2019-03-01T11:01:14.892Z,8.28
2019-03-01T11:03:43.977Z,9.28
2019-03-01T11:06:12.875Z,8.43
2019-03-01T11:08:42.005Z,8.78
2019-03-01T11:11:10.959Z,9.38
2019-03-01T11:13:39.820Z,9.03
2019-03-01T11:16:09.751Z,8.30
2019-03-01T11:18:38.623Z,8.55
2019-03-01T11:21:07.475Z,9.23
2019-03-01T11:23:36.333Z,9.60
2019-03-01T11:26:05.188Z,9.30
2019-03-01T11:28:34.052Z,9.20
2019-03-01T11:31:03.214Z,9.08
2019-03-01T11:33:33.271Z,9.65
2019-03-01T11:36:02.142Z,9.55
2019-03-01T11:38:30.991Z,9.18
2019-03-01T11:40:59.860Z,10.28
2019-03-01T11:43:28.719Z,10.50
2019-03-01T11:45:57.833Z,10.40
2019-03-01T11:48:26.929Z,12.70
2019-03-01T11:50:55.851Z,11.53
2019-03-01T11:53:24.724Z,12.53
2019-03-01T11:55:53.588Z,14.20
2019-03-01T11:58:23.420Z,15.68
2019-03-01T12:00:52.608Z,17.57
2019-03-01T12:03:21.762Z,17.10
2019-03-01T12:05:50.637Z,17.73
2019-03-01T12:08:19.513Z,17.20
2019-03-01T12:10:48.444Z,16.62
2019-03-01T12:13:17.308Z,17.98
2019-03-01T12:15:46.180Z,17.37
2019-03-01T12:18:15.051Z,18.75
2019-03-01T12:20:43.913Z,21.12
2019-03-01T12:23:12.781Z,21.60
2019-03-01T12:25:42.719Z,24.60
2019-03-01T12:28:11.588Z,29.07
2019-03-01T12:30:40.448Z,32.35
2019-03-01T12:33:09.329Z,31.30
2019-03-01T12:35:38.176Z,33.08
2019-03-01T12:38:07.056Z,34.60
2019-03-01T12:40:35.934Z,37.88
2019-03-01T12:43:04.848Z,42.23
2019-03-01T12:45:33.719Z,43.52
2019-03-01T12:48:02.580Z,42.83
2019-03-01T12:50:31.459Z,44.10
2019-03-01T12:53:00.316Z,46.20
2019-03-01T12:55:29.752Z,46.42
2019-03-01T12:57:58.913Z,46.55
2019-03-01T13:00:32.207Z,46.80
2019-03-01T13:03:01.055Z,49.00
2019-03-01T13:05:30.340Z,47.38
2019-03-01T13:07:59.380Z,44.80
2019-03-01T13:10:29.424Z,46.88
2019-03-01T13:12:58.648Z,46.98
2019-03-01T13:15:29.120Z,47.75
2019-03-01T13:17:58.087Z,49.77
2019-03-01T13:20:27.192Z,50.55
2019-03-01T13:22:56.059Z,51.95
2019-03-01T13:25:25.999Z,52.08
2019-03-01T13:27:55.517Z,54.40
2019-03-01T13:30:25.286Z,56.58
2019-03-01T13:32:55.014Z,57.08
2019-03-01T13:35:26.035Z,54.42
2019-03-01T13:37:56.401Z,56.10
2019-03-01T13:40:25.872Z,56.40
2019-03-01T13:42:54.731Z,58.48
2019-03-01T13:45:24.612Z,56.75
2019-03-01T13:47:53.471Z,57.25
2019-03-01T13:50:22.419Z,58.87
2019-03-01T13:52:51.307Z,58.10
2019-03-01T13:55:22.137Z,56.40
2019-03-01T13:57:51.593Z,57.90
2019-03-01T14:00:21.524Z,55.88
2019-03-01T14:02:50.646Z,56.70
2019-03-01T14:05:19.608Z,56.20
2019-03-01T14:07:51.989Z,57.03
2019-03-01T14:10:20.895Z,59.10
2019-03-01T14:12:49.769Z,55.60
2019-03-01T14:15:18.696Z,55.60
2019-03-01T14:17:47.627Z,53.65
2019-03-01T14:20:20.644Z,55.25
2019-03-01T14:22:49.259Z,56.40
2019-03-01T14:25:18.615Z,55.48
2019-03-01T14:27:48.549Z,55.45
2019-03-01T14:30:25.397Z,55.05
2019-03-01T14:32:57.681Z,56.23
2019-03-01T14:35:26.856Z,56.23
2019-03-01T14:37:56.108Z,56.15
2019-03-01T14:40:24.969Z,56.00
2019-03-01T14:42:53.848Z,56.53
2019-03-01T14:45:26.103Z,54.25
2019-03-01T14:47:55.360Z,54.63
2019-03-01T14:50:24.693Z,56.08
2019-03-01T14:52:58.326Z,55.03
2019-03-01T14:55:25.799Z,55.90
2019-03-01T14:57:57.727Z,56.50
2019-03-01T15:00:30.810Z,56.60
2019-03-01T15:03:01.454Z,56.68
2019-03-01T15:05:30.629Z,56.25
2019-03-01T15:07:59.728Z,54.40
2019-03-01T15:10:28.841Z,52.30
2019-03-01T15:12:59.167Z,53.90
2019-03-01T15:15:30.646Z,53.05
2019-03-01T15:17:58.960Z,54.10
2019-03-01T15:20:28.068Z,53.33
2019-03-01T15:22:57.240Z,51.77
2019-03-01T15:25:26.115Z,52.20
2019-03-01T15:27:54.986Z,51.20
2019-03-01T15:30:24.084Z,50.15
2019-03-01T15:32:52.972Z,49.48
2019-03-01T15:35:21.839Z,49.40
2019-03-01T15:37:50.706Z,51.42
2019-03-01T15:40:19.571Z,48.48
2019-03-01T15:42:51.465Z,48.13
2019-03-01T15:45:19.245Z,46.05
2019-03-01T15:47:50.312Z,44.80
2019-03-01T15:50:18.914Z,43.00
2019-03-01T15:52:49.837Z,41.58
2019-03-01T15:55:18.412Z,43.85
2019-03-01T15:57:47.307Z,44.00
2019-03-01T16:00:16.967Z,42.80
2019-03-01T16:02:45.831Z,43.58
2019-03-01T16:05:14.778Z,44.03
2019-03-01T16:07:43.633Z,42.08
2019-03-01T16:10:14.037Z,42.45
2019-03-01T16:12:42.967Z,41.88
2019-03-01T16:15:15.177Z,42.55
2019-03-01T16:17:45.114Z,43.17
2019-03-01T16:20:15.518Z,41.85
2019-03-01T16:22:44.375Z,41.92
2019-03-01T16:25:17.268Z,43.38
2019-03-01T16:27:45.771Z,41.70
2019-03-01T16:30:17.523Z,41.95
2019-03-01T16:32:50.557Z,40.03
2019-03-01T16:35:19.420Z,40.03
2019-03-01T16:37:52.573Z,39.88
2019-03-01T16:40:21.451Z,39.48
2019-03-01T16:42:54.116Z,38.42
2019-03-01T16:45:21.899Z,37.20
2019-03-01T16:47:51.148Z,37.10
2019-03-01T16:50:20.416Z,37.23
2019-03-01T16:52:49.284Z,37.13
2019-03-01T16:55:19.241Z,38.15
2019-03-01T16:57:48.673Z,37.30
2019-03-01T17:00:20.441Z,35.38
2019-03-01T17:02:50.868Z,37.58
2019-03-01T17:05:19.951Z,37.15
2019-03-01T17:07:49.784Z,36.30
2019-03-01T17:10:19.019Z,33.92
2019-03-01T17:12:48.774Z,32.73
2019-03-01T17:15:20.154Z,33.20
2019-03-01T17:17:49.807Z,35.30
2019-03-01T17:20:18.680Z,33.63
2019-03-01T17:22:47.540Z,33.45
2019-03-01T17:25:17.000Z,32.55
2019-03-01T17:27:46.334Z,32.42
2019-03-01T17:30:17.895Z,31.17
2019-03-01T17:32:47.272Z,31.45
2019-03-01T17:35:16.199Z,30.85
2019-03-01T17:37:45.059Z,27.58
2019-03-01T17:40:17.122Z,28.70
2019-03-01T17:42:45.995Z,27.32
2019-03-01T17:45:17.366Z,27.37
2019-03-01T17:47:46.676Z,26.48
2019-03-01T17:50:15.527Z,26.12
2019-03-01T17:52:44.383Z,26.48
2019-03-01T17:55:13.811Z,25.77
2019-03-01T17:57:42.689Z,26.25
2019-03-01T18:00:13.147Z,24.98
2019-03-01T18:02:42.396Z,25.97
2019-03-01T18:05:11.831Z,24.23
2019-03-01T18:07:40.685Z,23.80
2019-03-01T18:10:10.708Z,24.32
2019-03-01T18:12:39.918Z,23.27
2019-03-01T18:15:12.378Z,24.02
2019-03-01T18:17:41.196Z,23.12
2019-03-01T18:20:13.471Z,22.30
2019-03-01T18:22:42.319Z,24.43
2019-03-01T18:25:11.759Z,23.75
2019-03-01T18:27:40.860Z,22.93
2019-03-01T18:30:11.251Z,23.10
2019-03-01T18:32:41.801Z,22.20
2019-03-01T18:35:11.411Z,21.52
2019-03-01T18:37:41.176Z,22.05
2019-03-01T18:40:13.406Z,20.15
2019-03-01T18:42:42.095Z,20.97
2019-03-01T18:45:14.956Z,20.37
2019-03-01T18:47:43.823Z,21.87
2019-03-01T18:50:17.689Z,18.55
2019-03-01T18:52:49.593Z,18.87
2019-03-01T18:55:18.514Z,21.62
2019-03-01T18:57:47.463Z,19.95
2019-03-01T19:00:18.175Z,18.05
2019-03-01T19:02:47.099Z,19.15
2019-03-01T19:05:16.271Z,21.62
2019-03-01T19:07:45.152Z,22.00
2019-03-01T19:10:15.543Z,22.52
2019-03-01T19:12:44.817Z,23.98
2019-03-01T19:15:16.393Z,23.87
2019-03-01T19:17:45.799Z,24.65
2019-03-01T19:20:25.168Z,25.05
2019-03-01T19:22:54.103Z,25.08
2019-03-01T19:25:25.279Z,23.85
2019-03-01T19:27:53.613Z,24.67
2019-03-01T19:30:23.047Z,26.82
2019-03-01T19:32:51.909Z,26.02
2019-03-01T19:35:20.775Z,26.52
2019-03-01T19:37:50.790Z,26.57
2019-03-01T19:40:20.753Z,26.48
2019-03-01T19:42:49.629Z,27.75
2019-03-01T19:45:18.952Z,27.45
2019-03-01T19:47:48.882Z,26.25
2019-03-01T19:50:21.714Z,28.60
2019-03-01T19:55:19.900Z,25.52
2019-03-01T19:57:49.841Z,27.13
2019-03-01T20:00:22.608Z,27.27
2019-03-01T20:02:51.474Z,25.12
2019-03-01T20:05:21.809Z,28.57
2019-03-01T20:07:51.794Z,26.75
2019-03-01T20:10:21.223Z,26.00
2019-03-01T20:12:50.080Z,26.87
2019-03-01T20:15:20.643Z,26.00
2019-03-01T20:17:49.668Z,24.77
2019-03-01T20:20:20.063Z,24.25
2019-03-01T20:22:50.440Z,24.05
2019-03-01T20:25:19.768Z,24.20
2019-03-01T20:27:48.620Z,26.02
2019-03-01T20:30:28.459Z,26.35
2019-03-01T20:32:52.598Z,26.25
2019-03-01T20:35:22.048Z,26.48
2019-03-01T20:37:50.983Z,28.90
2019-03-01T20:40:22.881Z,27.07
2019-03-01T20:42:50.471Z,27.87
2019-03-01T20:45:30.020Z,26.65
2019-03-01T20:47:57.387Z,26.05
2019-03-01T20:50:26.307Z,26.52
2019-03-01T20:52:55.248Z,25.72
2019-03-01T20:55:24.226Z,24.95
2019-03-01T20:57:53.147Z,24.43
2019-03-01T21:00:26.103Z,24.85
2019-03-01T21:05:25.003Z,23.73
2019-03-01T21:07:54.919Z,23.98
2019-03-01T21:10:24.580Z,24.77
2019-03-01T21:12:53.447Z,24.43
2019-03-01T21:15:22.635Z,24.23
2019-03-01T21:17:52.973Z,24.25
2019-03-01T21:20:22.051Z,22.65
2019-03-01T21:22:50.925Z,25.75
2019-03-01T21:25:21.419Z,26.17
2019-03-01T21:27:50.283Z,26.20
2019-03-01T21:30:29.124Z,26.00
2019-03-01T21:32:58.009Z,26.82
2019-03-01T21:35:26.867Z,25.27
2019-03-01T21:37:55.865Z,26.37
2019-03-01T21:40:24.723Z,25.97
2019-03-01T21:42:57.381Z,26.65
2019-03-01T21:45:24.724Z,25.05
2019-03-01T21:47:53.654Z,25.25
2019-03-01T21:50:22.579Z,26.37
2019-03-01T21:52:51.443Z,25.15
2019-03-01T21:55:25.042Z,26.35
2019-03-01T22:00:25.477Z,26.00
2019-03-01T22:02:54.383Z,26.90
2019-03-01T22:05:24.416Z,26.12
2019-03-01T22:07:53.282Z,26.60
2019-03-01T22:10:22.146Z,26.00
2019-03-01T22:12:51.005Z,26.40
2019-03-01T22:15:24.851Z,27.40
2019-03-01T22:17:51.968Z,26.75
2019-03-01T22:20:21.116Z,27.77
2019-03-01T22:22:49.979Z,26.15
2019-03-01T22:25:18.896Z,26.90
2019-03-01T22:27:47.758Z,27.90
2019-03-01T22:30:19.593Z,28.20
2019-03-01T22:32:49.237Z,29.35
2019-03-01T22:35:18.099Z,28.27
2019-03-01T22:37:47.157Z,28.23
2019-03-01T22:40:15.998Z,28.70
2019-03-01T22:42:45.803Z,29.23
2019-03-01T22:45:16.184Z,29.82
2019-03-01T22:47:45.133Z,28.73
2019-03-01T22:50:14.960Z,29.00
2019-03-01T22:52:44.210Z,29.48
2019-03-01T22:55:16.430Z,30.80
2019-03-01T22:57:45.368Z,29.57
2019-03-01T23:00:19.508Z,28.73
2019-03-01T23:02:50.120Z,28.07
2019-03-01T23:05:18.979Z,29.30
2019-03-01T23:07:47.857Z,30.17
2019-03-01T23:10:18.428Z,30.85
2019-03-01T23:12:47.287Z,30.10
2019-03-01T23:15:16.143Z,31.68
2019-03-01T23:17:45.008Z,29.75
2019-03-01T23:20:13.871Z,29.10
2019-03-01T23:22:45.986Z,29.85
2019-03-01T23:25:13.298Z,28.10
2019-03-01T23:27:43.338Z,28.62
2019-03-01T23:30:12.202Z,27.52
2019-03-01T23:32:41.063Z,28.87
2019-03-01T23:35:09.932Z,26.70
2019-03-01T23:37:39.754Z,29.40
2019-03-01T23:40:08.726Z,29.18
2019-03-01T23:42:37.626Z,27.93
2019-03-01T23:45:10.067Z,27.32
2019-03-01T23:47:39.562Z,28.45
2019-03-01T23:50:11.704Z,27.80
2019-03-01T23:52:40.900Z,27.25
2019-03-01T23:55:09.831Z,28.80
2019-03-01T23:57:41.115Z,29.42
